sensor_id;sensor_type;location;lat;lon;timestamp;temperature;humidity
42663;DHT22;44330;51.360;6.686;2023-08-20T00:00:58;18.80;91.40
42663;DHT22;44330;51.360;6.686;2023-08-20T00:03:24;18.70;91.40
42663;DHT22;44330;51.360;6.686;2023-08-20T00:05:50;18.70;91.40
42663;DHT22;44330;51.360;6.686;2023-08-20T00:08:15;18.70;91.40
42663;DHT22;44330;51.360;6.686;2023-08-20T00:10:41;18.70;91.40
42663;DHT22;44330;51.360;6.686;2023-08-20T00:13:06;18.70;91.50
42663;DHT22;44330;51.360;6.686;2023-08-20T00:15:32;18.70;91.40
42663;DHT22;44330;51.360;6.686;2023-08-20T00:17:58;18.70;91.50
42663;DHT22;44330;51.360;6.686;2023-08-20T00:20:24;18.70;91.60
42663;DHT22;44330;51.360;6.686;2023-08-20T00:22:50;18.60;91.60
42663;DHT22;44330;51.360;6.686;2023-08-20T00:25:16;18.60;91.60
42663;DHT22;44330;51.360;6.686;2023-08-20T00:27:42;18.60;91.60
42663;DHT22;44330;51.360;6.686;2023-08-20T00:30:07;18.60;91.60
42663;DHT22;44330;51.360;6.686;2023-08-20T00:32:33;18.60;91.60
42663;DHT22;44330;51.360;6.686;2023-08-20T00:34:59;18.50;91.60
42663;DHT22;44330;51.360;6.686;2023-08-20T00:37:24;18.50;91.60
42663;DHT22;44330;51.360;6.686;2023-08-20T00:39:50;18.50;91.70
42663;DHT22;44330;51.360;6.686;2023-08-20T00:42:16;18.50;91.60
42663;DHT22;44330;51.360;6.686;2023-08-20T00:44:41;18.50;91.60
42663;DHT22;44330;51.360;6.686;2023-08-20T00:47:09;18.50;91.70
42663;DHT22;44330;51.360;6.686;2023-08-20T00:49:35;18.50;91.70
42663;DHT22;44330;51.360;6.686;2023-08-20T00:52:01;18.40;91.80
42663;DHT22;44330;51.360;6.686;2023-08-20T00:54:27;18.50;92.20
42663;DHT22;44330;51.360;6.686;2023-08-20T00:56:53;18.40;92.20
42663;DHT22;44330;51.360;6.686;2023-08-20T00:59:18;18.50;92.20
42663;DHT22;44330;51.360;6.686;2023-08-20T01:01:46;18.50;92.50
42663;DHT22;44330;51.360;6.686;2023-08-20T01:04:12;18.50;92.40
42663;DHT22;44330;51.360;6.686;2023-08-20T01:06:49;18.40;92.30
42663;DHT22;44330;51.360;6.686;2023-08-20T01:12:01;18.40;92.30
42663;DHT22;44330;51.360;6.686;2023-08-20T01:14:27;18.40;92.30
42663;DHT22;44330;51.360;6.686;2023-08-20T01:16:53;18.30;92.30
42663;DHT22;44330;51.360;6.686;2023-08-20T01:19:19;18.30;92.40
42663;DHT22;44330;51.360;6.686;2023-08-20T01:24:17;18.30;92.50
42663;DHT22;44330;51.360;6.686;2023-08-20T01:27:06;18.30;92.50
42663;DHT22;44330;51.360;6.686;2023-08-20T01:29:33;18.20;92.60
42663;DHT22;44330;51.360;6.686;2023-08-20T01:31:59;18.20;92.60
42663;DHT22;44330;51.360;6.686;2023-08-20T01:34:25;18.20;92.70
42663;DHT22;44330;51.360;6.686;2023-08-20T01:36:50;18.20;92.80
42663;DHT22;44330;51.360;6.686;2023-08-20T01:39:19;18.30;93.20
42663;DHT22;44330;51.360;6.686;2023-08-20T01:41:44;18.20;93.20
42663;DHT22;44330;51.360;6.686;2023-08-20T01:44:10;18.30;93.20
42663;DHT22;44330;51.360;6.686;2023-08-20T01:46:35;18.20;93.10
42663;DHT22;44330;51.360;6.686;2023-08-20T01:49:02;18.20;93.10
42663;DHT22;44330;51.360;6.686;2023-08-20T01:51:27;18.20;93.20
42663;DHT22;44330;51.360;6.686;2023-08-20T01:53:53;18.20;93.20
42663;DHT22;44330;51.360;6.686;2023-08-20T01:56:18;18.20;93.20
42663;DHT22;44330;51.360;6.686;2023-08-20T01:58:44;18.20;93.30
42663;DHT22;44330;51.360;6.686;2023-08-20T02:01:09;18.20;93.30
42663;DHT22;44330;51.360;6.686;2023-08-20T02:03:35;18.10;93.30
42663;DHT22;44330;51.360;6.686;2023-08-20T02:06:01;18.20;93.50
42663;DHT22;44330;51.360;6.686;2023-08-20T02:08:27;18.20;93.50
42663;DHT22;44330;51.360;6.686;2023-08-20T02:10:59;18.20;93.50
42663;DHT22;44330;51.360;6.686;2023-08-20T02:13:25;18.30;93.60
42663;DHT22;44330;51.360;6.686;2023-08-20T02:15:57;18.30;93.60
42663;DHT22;44330;51.360;6.686;2023-08-20T02:18:22;18.30;93.60
42663;DHT22;44330;51.360;6.686;2023-08-20T02:20:47;18.30;93.70
42663;DHT22;44330;51.360;6.686;2023-08-20T02:23:13;18.40;93.70
42663;DHT22;44330;51.360;6.686;2023-08-20T02:25:38;18.40;93.80
42663;DHT22;44330;51.360;6.686;2023-08-20T02:28:04;18.50;93.80
42663;DHT22;44330;51.360;6.686;2023-08-20T02:30:29;18.50;93.80
42663;DHT22;44330;51.360;6.686;2023-08-20T02:32:55;18.50;93.80
42663;DHT22;44330;51.360;6.686;2023-08-20T02:35:20;18.60;93.90
42663;DHT22;44330;51.360;6.686;2023-08-20T02:37:46;18.50;93.90
42663;DHT22;44330;51.360;6.686;2023-08-20T02:40:11;18.50;93.90
42663;DHT22;44330;51.360;6.686;2023-08-20T02:42:38;18.60;93.90
42663;DHT22;44330;51.360;6.686;2023-08-20T02:45:04;18.50;93.90
42663;DHT22;44330;51.360;6.686;2023-08-20T02:47:30;18.40;93.80
42663;DHT22;44330;51.360;6.686;2023-08-20T02:49:55;18.50;93.90
42663;DHT22;44330;51.360;6.686;2023-08-20T02:52:20;18.40;93.80
42663;DHT22;44330;51.360;6.686;2023-08-20T02:54:46;18.40;93.80
42663;DHT22;44330;51.360;6.686;2023-08-20T02:57:11;18.40;93.80
42663;DHT22;44330;51.360;6.686;2023-08-20T02:59:37;18.30;93.70
42663;DHT22;44330;51.360;6.686;2023-08-20T03:02:02;18.40;93.80
42663;DHT22;44330;51.360;6.686;2023-08-20T03:04:28;18.20;93.80
42663;DHT22;44330;51.360;6.686;2023-08-20T03:06:54;18.20;93.70
42663;DHT22;44330;51.360;6.686;2023-08-20T03:09:19;18.20;93.70
42663;DHT22;44330;51.360;6.686;2023-08-20T03:11:45;18.10;93.70
42663;DHT22;44330;51.360;6.686;2023-08-20T03:14:10;18.10;93.70
42663;DHT22;44330;51.360;6.686;2023-08-20T03:16:36;18.10;93.70
42663;DHT22;44330;51.360;6.686;2023-08-20T03:19:01;18.20;93.80
42663;DHT22;44330;51.360;6.686;2023-08-20T03:21:28;18.10;93.80
42663;DHT22;44330;51.360;6.686;2023-08-20T03:23:53;18.10;93.80
42663;DHT22;44330;51.360;6.686;2023-08-20T03:26:19;18.20;93.90
42663;DHT22;44330;51.360;6.686;2023-08-20T03:28:44;18.20;93.90
42663;DHT22;44330;51.360;6.686;2023-08-20T03:31:09;18.30;93.90
42663;DHT22;44330;51.360;6.686;2023-08-20T03:33:35;18.20;93.80
42663;DHT22;44330;51.360;6.686;2023-08-20T03:36:00;18.30;93.80
42663;DHT22;44330;51.360;6.686;2023-08-20T03:38:26;18.20;93.80
42663;DHT22;44330;51.360;6.686;2023-08-20T03:40:51;18.30;93.70
42663;DHT22;44330;51.360;6.686;2023-08-20T03:43:17;18.20;93.70
42663;DHT22;44330;51.360;6.686;2023-08-20T03:45:42;18.10;93.70
42663;DHT22;44330;51.360;6.686;2023-08-20T03:48:08;18.10;93.70
42663;DHT22;44330;51.360;6.686;2023-08-20T03:50:33;18.10;93.70
42663;DHT22;44330;51.360;6.686;2023-08-20T03:52:58;18.10;93.70
42663;DHT22;44330;51.360;6.686;2023-08-20T03:55:24;18.10;93.70
42663;DHT22;44330;51.360;6.686;2023-08-20T03:57:49;18.10;93.60
42663;DHT22;44330;51.360;6.686;2023-08-20T04:00:15;18.00;93.60
42663;DHT22;44330;51.360;6.686;2023-08-20T04:02:40;18.00;93.60
42663;DHT22;44330;51.360;6.686;2023-08-20T04:05:06;18.00;93.60
42663;DHT22;44330;51.360;6.686;2023-08-20T04:07:32;17.90;93.60
42663;DHT22;44330;51.360;6.686;2023-08-20T04:09:57;17.90;93.60
42663;DHT22;44330;51.360;6.686;2023-08-20T04:12:22;17.90;93.60
42663;DHT22;44330;51.360;6.686;2023-08-20T04:14:48;17.80;93.60
42663;DHT22;44330;51.360;6.686;2023-08-20T04:17:14;17.80;93.60
42663;DHT22;44330;51.360;6.686;2023-08-20T04:19:39;17.80;93.60
42663;DHT22;44330;51.360;6.686;2023-08-20T04:22:05;17.80;93.60
42663;DHT22;44330;51.360;6.686;2023-08-20T04:24:30;17.80;93.60
42663;DHT22;44330;51.360;6.686;2023-08-20T04:26:55;17.70;93.60
42663;DHT22;44330;51.360;6.686;2023-08-20T04:29:22;17.70;93.60
42663;DHT22;44330;51.360;6.686;2023-08-20T04:31:47;17.70;93.60
42663;DHT22;44330;51.360;6.686;2023-08-20T04:34:13;17.60;93.60
42663;DHT22;44330;51.360;6.686;2023-08-20T04:36:38;17.60;93.70
42663;DHT22;44330;51.360;6.686;2023-08-20T04:39:04;17.60;93.70
42663;DHT22;44330;51.360;6.686;2023-08-20T04:41:30;17.60;93.70
42663;DHT22;44330;51.360;6.686;2023-08-20T04:43:55;17.60;93.80
42663;DHT22;44330;51.360;6.686;2023-08-20T04:46:20;17.60;93.80
42663;DHT22;44330;51.360;6.686;2023-08-20T04:48:46;17.60;93.80
42663;DHT22;44330;51.360;6.686;2023-08-20T04:51:11;17.70;93.80
42663;DHT22;44330;51.360;6.686;2023-08-20T04:53:37;17.50;93.80
42663;DHT22;44330;51.360;6.686;2023-08-20T04:56:02;17.60;93.90
42663;DHT22;44330;51.360;6.686;2023-08-20T04:58:28;17.60;93.90
42663;DHT22;44330;51.360;6.686;2023-08-20T05:00:53;17.60;93.90
42663;DHT22;44330;51.360;6.686;2023-08-20T05:03:19;17.60;93.90
42663;DHT22;44330;51.360;6.686;2023-08-20T05:05:48;17.60;94.00
42663;DHT22;44330;51.360;6.686;2023-08-20T05:08:13;17.60;94.10
42663;DHT22;44330;51.360;6.686;2023-08-20T05:10:39;17.60;94.10
42663;DHT22;44330;51.360;6.686;2023-08-20T05:13:05;17.60;94.10
42663;DHT22;44330;51.360;6.686;2023-08-20T05:15:30;17.60;94.30
42663;DHT22;44330;51.360;6.686;2023-08-20T05:17:57;17.70;94.40
42663;DHT22;44330;51.360;6.686;2023-08-20T05:20:22;17.70;94.50
42663;DHT22;44330;51.360;6.686;2023-08-20T05:22:48;17.70;94.50
42663;DHT22;44330;51.360;6.686;2023-08-20T05:25:13;17.80;94.60
42663;DHT22;44330;51.360;6.686;2023-08-20T05:27:39;17.80;94.60
42663;DHT22;44330;51.360;6.686;2023-08-20T05:30:04;17.90;94.70
42663;DHT22;44330;51.360;6.686;2023-08-20T05:32:30;17.90;94.70
42663;DHT22;44330;51.360;6.686;2023-08-20T05:34:56;17.90;94.70
42663;DHT22;44330;51.360;6.686;2023-08-20T05:37:21;18.00;94.70
42663;DHT22;44330;51.360;6.686;2023-08-20T05:39:47;18.00;94.70
42663;DHT22;44330;51.360;6.686;2023-08-20T05:42:12;18.00;94.70
42663;DHT22;44330;51.360;6.686;2023-08-20T05:44:38;18.10;94.70
42663;DHT22;44330;51.360;6.686;2023-08-20T05:47:03;18.10;94.60
42663;DHT22;44330;51.360;6.686;2023-08-20T05:49:30;18.10;94.60
42663;DHT22;44330;51.360;6.686;2023-08-20T05:51:56;18.20;94.70
42663;DHT22;44330;51.360;6.686;2023-08-20T05:54:21;18.20;94.70
42663;DHT22;44330;51.360;6.686;2023-08-20T05:56:47;18.30;94.80
42663;DHT22;44330;51.360;6.686;2023-08-20T05:59:12;18.30;94.80
42663;DHT22;44330;51.360;6.686;2023-08-20T06:01:38;18.40;94.80
42663;DHT22;44330;51.360;6.686;2023-08-20T06:04:03;18.50;94.80
42663;DHT22;44330;51.360;6.686;2023-08-20T06:06:29;18.50;94.80
42663;DHT22;44330;51.360;6.686;2023-08-20T06:08:54;18.60;94.80
42663;DHT22;44330;51.360;6.686;2023-08-20T06:11:20;18.60;94.70
42663;DHT22;44330;51.360;6.686;2023-08-20T06:13:46;18.70;94.80
42663;DHT22;44330;51.360;6.686;2023-08-20T06:16:11;18.70;94.70
42663;DHT22;44330;51.360;6.686;2023-08-20T06:18:37;18.80;94.60
42663;DHT22;44330;51.360;6.686;2023-08-20T06:21:02;18.90;94.60
42663;DHT22;44330;51.360;6.686;2023-08-20T06:23:28;19.00;94.60
42663;DHT22;44330;51.360;6.686;2023-08-20T06:25:54;19.10;94.60
42663;DHT22;44330;51.360;6.686;2023-08-20T06:28:19;19.10;94.50
42663;DHT22;44330;51.360;6.686;2023-08-20T06:30:45;19.30;94.50
42663;DHT22;44330;51.360;6.686;2023-08-20T06:33:10;19.30;94.40
42663;DHT22;44330;51.360;6.686;2023-08-20T06:35:36;19.40;94.20
42663;DHT22;44330;51.360;6.686;2023-08-20T06:38:01;19.50;94.00
42663;DHT22;44330;51.360;6.686;2023-08-20T06:40:27;19.60;93.80
42663;DHT22;44330;51.360;6.686;2023-08-20T06:42:53;19.80;93.60
42663;DHT22;44330;51.360;6.686;2023-08-20T06:45:19;19.90;93.30
42663;DHT22;44330;51.360;6.686;2023-08-20T06:47:44;20.00;93.20
42663;DHT22;44330;51.360;6.686;2023-08-20T06:50:10;20.10;93.00
42663;DHT22;44330;51.360;6.686;2023-08-20T06:52:35;20.30;92.80
42663;DHT22;44330;51.360;6.686;2023-08-20T06:55:01;20.50;92.60
42663;DHT22;44330;51.360;6.686;2023-08-20T06:57:26;20.70;91.40
42663;DHT22;44330;51.360;6.686;2023-08-20T06:59:52;20.70;90.70
42663;DHT22;44330;51.360;6.686;2023-08-20T07:02:17;21.00;90.40
42663;DHT22;44330;51.360;6.686;2023-08-20T07:04:43;21.20;89.70
42663;DHT22;44330;51.360;6.686;2023-08-20T07:07:08;21.40;89.70
42663;DHT22;44330;51.360;6.686;2023-08-20T07:09:34;21.60;88.80
42663;DHT22;44330;51.360;6.686;2023-08-20T07:12:00;21.70;88.00
42663;DHT22;44330;51.360;6.686;2023-08-20T07:14:26;21.90;84.20
42663;DHT22;44330;51.360;6.686;2023-08-20T07:16:51;22.00;83.10
42663;DHT22;44330;51.360;6.686;2023-08-20T07:19:17;22.20;83.30
42663;DHT22;44330;51.360;6.686;2023-08-20T07:21:42;22.40;82.90
42663;DHT22;44330;51.360;6.686;2023-08-20T07:24:08;22.60;81.70
42663;DHT22;44330;51.360;6.686;2023-08-20T07:26:33;22.80;76.00
42663;DHT22;44330;51.360;6.686;2023-08-20T07:28:59;22.90;75.30
42663;DHT22;44330;51.360;6.686;2023-08-20T07:31:28;23.20;74.80
42663;DHT22;44330;51.360;6.686;2023-08-20T07:33:54;23.30;69.30
42663;DHT22;44330;51.360;6.686;2023-08-20T07:36:21;23.60;68.60
42663;DHT22;44330;51.360;6.686;2023-08-20T07:38:47;23.60;65.10
42663;DHT22;44330;51.360;6.686;2023-08-20T07:41:12;23.80;62.00
42663;DHT22;44330;51.360;6.686;2023-08-20T07:43:38;24.00;63.00
42663;DHT22;44330;51.360;6.686;2023-08-20T07:46:05;24.10;61.30
42663;DHT22;44330;51.360;6.686;2023-08-20T07:48:30;24.30;60.90
42663;DHT22;44330;51.360;6.686;2023-08-20T07:50:56;24.60;56.70
42663;DHT22;44330;51.360;6.686;2023-08-20T07:53:21;24.70;49.20
42663;DHT22;44330;51.360;6.686;2023-08-20T07:55:47;24.70;51.00
42663;DHT22;44330;51.360;6.686;2023-08-20T07:58:12;24.90;48.50
42663;DHT22;44330;51.360;6.686;2023-08-20T08:00:37;25.10;50.60
42663;DHT22;44330;51.360;6.686;2023-08-20T08:03:03;25.40;51.10
42663;DHT22;44330;51.360;6.686;2023-08-20T08:05:28;25.60;33.90
42663;DHT22;44330;51.360;6.686;2023-08-20T08:07:54;25.80;38.50
42663;DHT22;44330;51.360;6.686;2023-08-20T08:10:23;25.90;16.60
42663;DHT22;44330;51.360;6.686;2023-08-20T08:12:49;26.10;24.10
42663;DHT22;44330;51.360;6.686;2023-08-20T08:17:51;26.40;21.00
42663;DHT22;44330;51.360;6.686;2023-08-20T08:20:16;26.30;2.70
42663;DHT22;44330;51.360;6.686;2023-08-20T08:22:42;26.40;12.90
42663;DHT22;44330;51.360;6.686;2023-08-20T08:25:07;26.40;12.80
42663;DHT22;44330;51.360;6.686;2023-08-20T08:27:33;26.70;9.60
42663;DHT22;44330;51.360;6.686;2023-08-20T08:29:58;26.90;17.90
42663;DHT22;44330;51.360;6.686;2023-08-20T08:32:24;27.30;10.40
42663;DHT22;44330;51.360;6.686;2023-08-20T08:34:50;27.50;1.00
42663;DHT22;44330;51.360;6.686;2023-08-20T08:37:15;27.70;1.00
42663;DHT22;44330;51.360;6.686;2023-08-20T08:39:41;27.80;1.00
42663;DHT22;44330;51.360;6.686;2023-08-20T08:42:06;28.00;1.00
42663;DHT22;44330;51.360;6.686;2023-08-20T08:44:33;28.30;1.00
42663;DHT22;44330;51.360;6.686;2023-08-20T08:46:59;28.40;99.90
42663;DHT22;44330;51.360;6.686;2023-08-20T08:49:25;28.50;99.90
42663;DHT22;44330;51.360;6.686;2023-08-20T08:51:51;28.70;99.90
42663;DHT22;44330;51.360;6.686;2023-08-20T08:54:18;28.80;99.90
42663;DHT22;44330;51.360;6.686;2023-08-20T08:56:45;28.90;27.40
42663;DHT22;44330;51.360;6.686;2023-08-20T08:59:10;29.10;99.90
42663;DHT22;44330;51.360;6.686;2023-08-20T09:01:39;29.10;99.90
42663;DHT22;44330;51.360;6.686;2023-08-20T09:04:05;29.30;99.90
42663;DHT22;44330;51.360;6.686;2023-08-20T09:06:46;29.50;22.10
42663;DHT22;44330;51.360;6.686;2023-08-20T09:09:12;29.70;99.90
42663;DHT22;44330;51.360;6.686;2023-08-20T09:11:38;30.10;99.90
42663;DHT22;44330;51.360;6.686;2023-08-20T09:14:03;30.30;99.90
42663;DHT22;44330;51.360;6.686;2023-08-20T09:16:29;30.40;1.00
42663;DHT22;44330;51.360;6.686;2023-08-20T09:18:55;30.10;99.90
42663;DHT22;44330;51.360;6.686;2023-08-20T09:21:26;29.90;99.90
42663;DHT22;44330;51.360;6.686;2023-08-20T09:23:53;30.00;99.90
42663;DHT22;44330;51.360;6.686;2023-08-20T09:26:19;30.00;1.00
42663;DHT22;44330;51.360;6.686;2023-08-20T09:28:45;30.00;13.80
42663;DHT22;44330;51.360;6.686;2023-08-20T09:31:11;30.00;39.90
42663;DHT22;44330;51.360;6.686;2023-08-20T09:33:44;29.80;1.00
42663;DHT22;44330;51.360;6.686;2023-08-20T09:36:13;29.50;1.00
42663;DHT22;44330;51.360;6.686;2023-08-20T09:38:39;29.40;99.90
42663;DHT22;44330;51.360;6.686;2023-08-20T09:41:04;29.20;99.90
42663;DHT22;44330;51.360;6.686;2023-08-20T09:43:30;29.10;98.90
42663;DHT22;44330;51.360;6.686;2023-08-20T09:45:56;29.00;99.90
42663;DHT22;44330;51.360;6.686;2023-08-20T09:48:23;28.80;99.90
42663;DHT22;44330;51.360;6.686;2023-08-20T09:50:51;28.70;99.90
42663;DHT22;44330;51.360;6.686;2023-08-20T09:53:19;28.90;99.90
42663;DHT22;44330;51.360;6.686;2023-08-20T09:55:47;29.00;99.90
42663;DHT22;44330;51.360;6.686;2023-08-20T09:58:14;29.00;99.90
42663;DHT22;44330;51.360;6.686;2023-08-20T10:00:40;29.40;99.90
42663;DHT22;44330;51.360;6.686;2023-08-20T10:03:06;29.70;99.90
42663;DHT22;44330;51.360;6.686;2023-08-20T10:05:31;30.00;99.90
42663;DHT22;44330;51.360;6.686;2023-08-20T10:07:58;29.40;99.90
42663;DHT22;44330;51.360;6.686;2023-08-20T10:10:24;29.10;99.90
42663;DHT22;44330;51.360;6.686;2023-08-20T10:12:51;28.80;99.90
42663;DHT22;44330;51.360;6.686;2023-08-20T10:15:16;29.00;99.90
42663;DHT22;44330;51.360;6.686;2023-08-20T10:17:43;29.40;99.90
42663;DHT22;44330;51.360;6.686;2023-08-20T10:20:09;29.60;99.90
42663;DHT22;44330;51.360;6.686;2023-08-20T10:22:39;29.80;1.00
42663;DHT22;44330;51.360;6.686;2023-08-20T10:25:05;30.20;1.00
42663;DHT22;44330;51.360;6.686;2023-08-20T10:27:32;30.50;72.40
42663;DHT22;44330;51.360;6.686;2023-08-20T10:30:00;30.80;99.90
42663;DHT22;44330;51.360;6.686;2023-08-20T10:33:11;30.80;99.90
42663;DHT22;44330;51.360;6.686;2023-08-20T10:35:12;31.10;1.00
42663;DHT22;44330;51.360;6.686;2023-08-20T10:37:38;31.30;92.10
42663;DHT22;44330;51.360;6.686;2023-08-20T10:40:06;31.70;1.00
42663;DHT22;44330;51.360;6.686;2023-08-20T10:42:32;31.90;99.90
42663;DHT22;44330;51.360;6.686;2023-08-20T10:45:08;32.10;1.00
42663;DHT22;44330;51.360;6.686;2023-08-20T10:47:41;31.30;69.30
42663;DHT22;44330;51.360;6.686;2023-08-20T10:50:10;31.60;37.10
42663;DHT22;44330;51.360;6.686;2023-08-20T10:52:43;31.60;99.90
42663;DHT22;44330;51.360;6.686;2023-08-20T10:55:32;31.40;99.90
42663;DHT22;44330;51.360;6.686;2023-08-20T10:57:58;31.10;63.20
42663;DHT22;44330;51.360;6.686;2023-08-20T11:00:24;31.00;99.90
42663;DHT22;44330;51.360;6.686;2023-08-20T11:02:52;31.00;63.00
42663;DHT22;44330;51.360;6.686;2023-08-20T11:05:20;30.60;36.70
42663;DHT22;44330;51.360;6.686;2023-08-20T11:07:47;30.40;99.90
42663;DHT22;44330;51.360;6.686;2023-08-20T11:10:16;30.40;99.90
42663;DHT22;44330;51.360;6.686;2023-08-20T11:12:42;30.20;99.90
42663;DHT22;44330;51.360;6.686;2023-08-20T11:15:08;30.20;99.90
42663;DHT22;44330;51.360;6.686;2023-08-20T11:17:34;30.30;99.90
42663;DHT22;44330;51.360;6.686;2023-08-20T11:20:06;30.40;99.90
42663;DHT22;44330;51.360;6.686;2023-08-20T11:22:32;30.50;82.60
42663;DHT22;44330;51.360;6.686;2023-08-20T11:24:59;30.40;99.90
42663;DHT22;44330;51.360;6.686;2023-08-20T11:27:27;30.40;99.90
42663;DHT22;44330;51.360;6.686;2023-08-20T11:29:53;30.20;99.90
42663;DHT22;44330;51.360;6.686;2023-08-20T11:32:22;30.10;23.50
42663;DHT22;44330;51.360;6.686;2023-08-20T11:34:48;30.00;99.90
42663;DHT22;44330;51.360;6.686;2023-08-20T11:37:18;30.20;1.00
42663;DHT22;44330;51.360;6.686;2023-08-20T11:39:44;30.50;99.90
42663;DHT22;44330;51.360;6.686;2023-08-20T11:42:10;30.70;99.90
42663;DHT22;44330;51.360;6.686;2023-08-20T11:44:45;30.50;99.90
42663;DHT22;44330;51.360;6.686;2023-08-20T11:47:17;30.30;99.90
42663;DHT22;44330;51.360;6.686;2023-08-20T11:49:43;30.10;99.90
42663;DHT22;44330;51.360;6.686;2023-08-20T11:52:12;30.10;99.90
42663;DHT22;44330;51.360;6.686;2023-08-20T11:54:42;29.80;99.90
42663;DHT22;44330;51.360;6.686;2023-08-20T11:57:08;30.00;99.90
42663;DHT22;44330;51.360;6.686;2023-08-20T11:59:33;30.20;99.90
42663;DHT22;44330;51.360;6.686;2023-08-20T12:01:59;30.30;99.90
42663;DHT22;44330;51.360;6.686;2023-08-20T12:04:26;30.30;99.90
42663;DHT22;44330;51.360;6.686;2023-08-20T12:07:02;30.40;63.80
42663;DHT22;44330;51.360;6.686;2023-08-20T12:09:28;30.20;99.20
42663;DHT22;44330;51.360;6.686;2023-08-20T12:11:54;29.50;1.00
42663;DHT22;44330;51.360;6.686;2023-08-20T12:14:21;29.30;99.90
42663;DHT22;44330;51.360;6.686;2023-08-20T12:16:47;29.20;99.90
42663;DHT22;44330;51.360;6.686;2023-08-20T12:19:13;29.20;99.90
42663;DHT22;44330;51.360;6.686;2023-08-20T12:21:41;29.10;99.90
42663;DHT22;44330;51.360;6.686;2023-08-20T12:24:11;29.30;99.90
42663;DHT22;44330;51.360;6.686;2023-08-20T12:26:37;29.20;99.90
42663;DHT22;44330;51.360;6.686;2023-08-20T12:29:02;29.20;99.90
42663;DHT22;44330;51.360;6.686;2023-08-20T12:31:28;28.70;99.90
42663;DHT22;44330;51.360;6.686;2023-08-20T12:33:54;28.60;1.00
42663;DHT22;44330;51.360;6.686;2023-08-20T12:36:19;28.40;99.90
42663;DHT22;44330;51.360;6.686;2023-08-20T12:38:45;28.20;99.90
42663;DHT22;44330;51.360;6.686;2023-08-20T12:41:10;28.30;1.00
42663;DHT22;44330;51.360;6.686;2023-08-20T12:43:36;28.20;1.00
42663;DHT22;44330;51.360;6.686;2023-08-20T12:46:07;28.30;99.90
42663;DHT22;44330;51.360;6.686;2023-08-20T12:48:32;28.50;99.90
42663;DHT22;44330;51.360;6.686;2023-08-20T12:50:58;29.00;99.90
42663;DHT22;44330;51.360;6.686;2023-08-20T12:53:24;29.20;99.90
42663;DHT22;44330;51.360;6.686;2023-08-20T12:55:49;29.50;99.90
42663;DHT22;44330;51.360;6.686;2023-08-20T12:58:15;29.30;95.00
42663;DHT22;44330;51.360;6.686;2023-08-20T13:00:41;29.60;49.10
42663;DHT22;44330;51.360;6.686;2023-08-20T13:03:07;30.10;56.60
42663;DHT22;44330;51.360;6.686;2023-08-20T13:05:32;30.70;99.90
42663;DHT22;44330;51.360;6.686;2023-08-20T13:07:58;30.60;63.80
42663;DHT22;44330;51.360;6.686;2023-08-20T13:10:24;30.40;99.90
42663;DHT22;44330;51.360;6.686;2023-08-20T13:12:50;30.00;99.90
42663;DHT22;44330;51.360;6.686;2023-08-20T13:15:19;30.40;99.90
42663;DHT22;44330;51.360;6.686;2023-08-20T13:17:47;30.40;99.90
42663;DHT22;44330;51.360;6.686;2023-08-20T13:20:13;30.20;99.90
42663;DHT22;44330;51.360;6.686;2023-08-20T13:22:39;30.10;1.00
42663;DHT22;44330;51.360;6.686;2023-08-20T13:25:05;30.00;99.90
42663;DHT22;44330;51.360;6.686;2023-08-20T13:27:31;30.40;99.90
42663;DHT22;44330;51.360;6.686;2023-08-20T13:29:56;30.70;99.90
42663;DHT22;44330;51.360;6.686;2023-08-20T13:32:22;31.00;78.70
42663;DHT22;44330;51.360;6.686;2023-08-20T13:34:48;31.20;83.10
42663;DHT22;44330;51.360;6.686;2023-08-20T13:37:14;31.40;99.90
42663;DHT22;44330;51.360;6.686;2023-08-20T13:39:39;31.10;77.90
42663;DHT22;44330;51.360;6.686;2023-08-20T13:42:05;30.60;99.90
42663;DHT22;44330;51.360;6.686;2023-08-20T13:44:36;30.70;57.30
42663;DHT22;44330;51.360;6.686;2023-08-20T13:47:04;30.90;99.90
42663;DHT22;44330;51.360;6.686;2023-08-20T13:49:30;31.00;1.00
42663;DHT22;44330;51.360;6.686;2023-08-20T13:51:58;30.50;2.40
42663;DHT22;44330;51.360;6.686;2023-08-20T13:54:24;30.30;99.90
42663;DHT22;44330;51.360;6.686;2023-08-20T13:56:49;29.80;99.90
42663;DHT22;44330;51.360;6.686;2023-08-20T13:59:15;30.00;40.70
42663;DHT22;44330;51.360;6.686;2023-08-20T14:01:40;30.30;99.90
42663;DHT22;44330;51.360;6.686;2023-08-20T14:04:06;30.10;99.90
42663;DHT22;44330;51.360;6.686;2023-08-20T14:06:31;29.90;99.90
42663;DHT22;44330;51.360;6.686;2023-08-20T14:08:57;29.10;99.90
42663;DHT22;44330;51.360;6.686;2023-08-20T14:11:22;28.90;99.90
42663;DHT22;44330;51.360;6.686;2023-08-20T14:13:48;28.70;12.80
42663;DHT22;44330;51.360;6.686;2023-08-20T14:16:14;28.50;1.00
42663;DHT22;44330;51.360;6.686;2023-08-20T14:18:39;28.60;99.90
42663;DHT22;44330;51.360;6.686;2023-08-20T14:21:05;29.00;99.90
42663;DHT22;44330;51.360;6.686;2023-08-20T14:23:31;29.00;99.90
42663;DHT22;44330;51.360;6.686;2023-08-20T14:25:57;29.20;99.90
42663;DHT22;44330;51.360;6.686;2023-08-20T14:28:22;29.60;99.90
42663;DHT22;44330;51.360;6.686;2023-08-20T14:30:48;30.10;97.30
42663;DHT22;44330;51.360;6.686;2023-08-20T14:33:14;30.10;99.90
42663;DHT22;44330;51.360;6.686;2023-08-20T14:35:40;30.30;99.90
42663;DHT22;44330;51.360;6.686;2023-08-20T14:38:06;30.30;82.50
42663;DHT22;44330;51.360;6.686;2023-08-20T14:40:36;30.10;99.70
42663;DHT22;44330;51.360;6.686;2023-08-20T14:43:01;30.30;99.90
42663;DHT22;44330;51.360;6.686;2023-08-20T14:45:28;30.50;99.90
42663;DHT22;44330;51.360;6.686;2023-08-20T14:47:54;30.60;1.00
42663;DHT22;44330;51.360;6.686;2023-08-20T14:50:19;30.80;99.90
42663;DHT22;44330;51.360;6.686;2023-08-20T14:52:45;30.90;1.00
42663;DHT22;44330;51.360;6.686;2023-08-20T14:55:17;30.50;1.00
42663;DHT22;44330;51.360;6.686;2023-08-20T14:57:42;30.20;1.00
42663;DHT22;44330;51.360;6.686;2023-08-20T15:00:08;29.80;90.20
42663;DHT22;44330;51.360;6.686;2023-08-20T15:02:34;30.00;67.60
42663;DHT22;44330;51.360;6.686;2023-08-20T15:05:00;30.20;99.90
42663;DHT22;44330;51.360;6.686;2023-08-20T15:07:26;30.50;99.90
42663;DHT22;44330;51.360;6.686;2023-08-20T15:09:52;30.50;1.00
42663;DHT22;44330;51.360;6.686;2023-08-20T15:12:17;30.60;99.90
42663;DHT22;44330;51.360;6.686;2023-08-20T15:14:43;30.80;15.20
42663;DHT22;44330;51.360;6.686;2023-08-20T15:17:08;30.90;1.00
42663;DHT22;44330;51.360;6.686;2023-08-20T15:19:34;31.00;1.00
42663;DHT22;44330;51.360;6.686;2023-08-20T15:21:59;31.10;1.00
42663;DHT22;44330;51.360;6.686;2023-08-20T15:24:25;30.80;50.30
42663;DHT22;44330;51.360;6.686;2023-08-20T15:26:50;30.90;1.00
42663;DHT22;44330;51.360;6.686;2023-08-20T15:29:16;31.00;99.90
42663;DHT22;44330;51.360;6.686;2023-08-20T15:31:41;31.00;1.00
42663;DHT22;44330;51.360;6.686;2023-08-20T15:34:07;31.10;1.00